createdAt,value
2022-12-27T00:00:30.124Z,3.3
2022-12-27T00:01:40.251Z,3.3
2022-12-27T00:02:50.354Z,3.3
2022-12-27T00:03:59.929Z,3.3
2022-12-27T00:05:10.591Z,3.3
2022-12-27T00:06:20.173Z,3.3
2022-12-27T00:07:30.837Z,3.2
2022-12-27T00:08:39.975Z,3.2
2022-12-27T00:09:50.075Z,3.2
2022-12-27T00:11:00.200Z,3.2
2022-12-27T00:12:10.322Z,3.2
2022-12-27T00:13:20.446Z,3.1
2022-12-27T00:14:30.551Z,3.1
2022-12-27T00:15:40.666Z,3.2
2022-12-27T00:16:50.807Z,3.3
2022-12-27T00:18:00.928Z,3.3
2022-12-27T00:19:11.052Z,3.3
2022-12-27T00:20:21.160Z,3.3
2022-12-27T00:21:31.511Z,3.3
2022-12-27T00:22:41.382Z,3.3
2022-12-27T00:23:50.517Z,3.3
2022-12-27T00:25:00.642Z,3.3
2022-12-27T00:26:11.028Z,3.3
2022-12-27T00:27:20.314Z,3.4
2022-12-27T00:28:30.997Z,3.3
2022-12-27T00:29:41.119Z,3.3
2022-12-27T00:30:51.237Z,3.3
2022-12-27T00:32:00.790Z,3.2
2022-12-27T00:33:11.709Z,3.2
2022-12-27T00:34:21.569Z,3.2
2022-12-27T00:35:31.691Z,3.2
2022-12-27T00:36:41.816Z,3.3
2022-12-27T00:37:51.931Z,3.3
2022-12-27T00:39:00.508Z,3.4
2022-12-27T00:40:11.193Z,3.4
2022-12-27T00:41:21.294Z,3.3
2022-12-27T00:42:31.444Z,3.3
2022-12-27T00:43:40.984Z,3.2
2022-12-27T00:44:51.647Z,3.2
2022-12-27T00:46:01.788Z,3.2
2022-12-27T00:47:11.888Z,3.2
2022-12-27T00:48:21.455Z,3.2
2022-12-27T00:49:32.146Z,3.2
2022-12-27T00:50:42.498Z,3.2
2022-12-27T00:51:52.375Z,3.2
2022-12-27T00:53:01.933Z,3.2
2022-12-27T00:54:11.630Z,3.2
2022-12-27T00:55:21.744Z,3.3
2022-12-27T00:56:31.868Z,3.3
2022-12-27T00:57:41.977Z,3.3
2022-12-27T00:58:52.098Z,3.3
2022-12-27T01:00:02.217Z,3.3
2022-12-27T01:01:12.336Z,3.3
2022-12-27T01:02:22.450Z,3.3
2022-12-27T01:03:32.556Z,3.3
2022-12-27T01:04:42.689Z,3.3
2022-12-27T01:05:52.817Z,3.2
2022-12-27T01:07:02.942Z,3.2
2022-12-27T01:08:13.049Z,3.2
2022-12-27T01:09:21.617Z,3.2
2022-12-27T01:10:32.299Z,3.1
2022-12-27T01:11:42.423Z,3.1
2022-12-27T01:12:52.531Z,3.1
2022-12-27T01:14:02.653Z,3.1
2022-12-27T01:15:12.782Z,3.1
2022-12-27T01:16:22.875Z,3
2022-12-27T01:17:32.999Z,3
2022-12-27T01:18:43.108Z,3
2022-12-27T01:19:53.234Z,3
2022-12-27T01:21:02.806Z,3.1
2022-12-27T01:22:13.479Z,3
2022-12-27T01:23:23.035Z,3
2022-12-27T01:24:32.974Z,3
2022-12-27T01:25:42.834Z,2.9
2022-12-27T01:26:52.953Z,2.9
2022-12-27T01:28:03.101Z,2.9
2022-12-27T01:29:13.198Z,2.9
2022-12-27T01:30:22.771Z,3
2022-12-27T01:31:33.439Z,3
2022-12-27T01:32:43.567Z,2.9
2022-12-27T01:33:53.107Z,2.9
2022-12-27T01:35:03.802Z,2.9
2022-12-27T01:36:13.911Z,2.9
2022-12-27T01:37:24.029Z,2.9
2022-12-27T01:38:34.158Z,2.8
2022-12-27T01:39:43.281Z,2.8
2022-12-27T01:40:53.415Z,2.7
2022-12-27T01:42:03.525Z,2.8
2022-12-27T01:43:13.626Z,2.8
2022-12-27T01:44:23.753Z,2.8
2022-12-27T01:45:33.862Z,2.8
2022-12-27T01:46:43.986Z,2.8
2022-12-27T01:47:54.116Z,2.7
2022-12-27T01:49:04.243Z,2.7
2022-12-27T01:50:14.331Z,2.7
2022-12-27T01:51:24.452Z,2.7
2022-12-27T01:52:34.576Z,2.7
2022-12-27T01:53:44.131Z,2.7
2022-12-27T01:54:53.829Z,2.7
2022-12-27T01:56:03.934Z,2.7
2022-12-27T01:57:14.070Z,2.7
2022-12-27T01:58:23.622Z,2.7
2022-12-27T01:59:34.296Z,2.8
2022-12-27T02:00:42.893Z,2.8
2022-12-27T02:01:53.710Z,2.8
2022-12-27T02:03:02.825Z,2.8
2022-12-27T02:04:11.981Z,2.8
2022-12-27T02:05:22.101Z,2.8
2022-12-27T02:06:32.208Z,2.9
2022-12-27T02:07:42.313Z,2.9
2022-12-27T02:08:52.447Z,2.8
2022-12-27T02:10:02.575Z,2.8
2022-12-27T02:11:12.923Z,2.7
2022-12-27T02:12:22.230Z,2.7
2022-12-27T02:13:33.167Z,2.7
2022-12-27T02:14:43.028Z,2.7
2022-12-27T02:15:53.165Z,2.8
2022-12-27T02:17:03.275Z,2.8
2022-12-27T02:18:13.375Z,2.7
2022-12-27T02:19:21.964Z,2.7
2022-12-27T02:20:32.648Z,2.7
2022-12-27T02:21:42.754Z,2.7
2022-12-27T02:22:52.893Z,2.7
2022-12-27T02:24:02.998Z,2.6
2022-12-27T02:25:13.117Z,2.6
2022-12-27T02:26:23.214Z,2.6
2022-12-27T02:27:33.365Z,2.5
2022-12-27T02:28:43.462Z,2.5
2022-12-27T02:29:53.569Z,2.4
2022-12-27T02:31:03.693Z,2.4
2022-12-27T02:32:13.829Z,2.4
2022-12-27T02:33:23.383Z,2.4
2022-12-27T02:34:33.078Z,2.4
2022-12-27T02:35:43.182Z,2.3
2022-12-27T02:36:53.317Z,2.3
2022-12-27T02:38:03.410Z,2.3
2022-12-27T02:39:13.566Z,2.3
2022-12-27T02:40:23.650Z,2.3
2022-12-27T02:41:33.767Z,2.3
2022-12-27T02:42:43.891Z,2.3
2022-12-27T02:43:54.026Z,2.3
2022-12-27T02:45:04.152Z,2.4
2022-12-27T02:46:14.260Z,2.4
2022-12-27T02:47:22.826Z,2.5
2022-12-27T02:48:33.525Z,2.4
2022-12-27T02:49:43.618Z,2.4
2022-12-27T02:50:53.752Z,2.5
2022-12-27T02:52:03.887Z,2.5
2022-12-27T02:53:13.969Z,2.6
2022-12-27T02:54:23.142Z,2.6
2022-12-27T02:55:32.253Z,2.6
2022-12-27T02:56:42.373Z,2.7
2022-12-27T02:57:51.767Z,2.7
2022-12-27T02:59:00.643Z,2.8
2022-12-27T03:00:10.788Z,2.8
2022-12-27T03:01:20.881Z,2.8
2022-12-27T03:02:31.020Z,2.8
2022-12-27T03:03:41.119Z,2.9
2022-12-27T03:04:51.245Z,2.9
2022-12-27T03:06:01.372Z,2.9
2022-12-27T03:07:11.472Z,2.9
2022-12-27T03:08:21.613Z,2.9
2022-12-27T03:09:31.721Z,2.9
2022-12-27T03:10:42.086Z,2.9
2022-12-27T03:11:51.946Z,2.9
2022-12-27T03:13:02.072Z,2.9
2022-12-27T03:14:11.232Z,3
2022-12-27T03:15:21.337Z,3
2022-12-27T03:16:31.696Z,3
2022-12-27T03:17:41.555Z,3
2022-12-27T03:18:51.691Z,2.9
2022-12-27T03:21:11.936Z,3
2022-12-27T03:22:22.042Z,2.9
2022-12-27T03:23:32.166Z,2.9
2022-12-27T03:24:42.281Z,2.9
2022-12-27T03:25:52.407Z,2.9
2022-12-27T03:27:01.953Z,3
2022-12-27T03:28:12.878Z,3
2022-12-27T03:29:21.755Z,3
2022-12-27T03:30:31.882Z,3
2022-12-27T03:31:42.023Z,3
2022-12-27T03:32:52.112Z,2.9
2022-12-27T03:34:02.248Z,3
2022-12-27T03:35:12.353Z,3
2022-12-27T03:36:21.903Z,3
2022-12-27T03:37:32.605Z,3
2022-12-27T03:38:42.706Z,3
2022-12-27T03:39:52.823Z,3
2022-12-27T03:41:02.380Z,3
2022-12-27T03:42:13.072Z,3
2022-12-27T03:43:22.622Z,3
2022-12-27T03:44:32.302Z,3.1
2022-12-27T03:45:42.440Z,3.1
2022-12-27T03:46:51.599Z,3.1
2022-12-27T03:48:00.715Z,3.1
2022-12-27T03:49:10.840Z,3.2
2022-12-27T03:50:20.935Z,3.2
2022-12-27T03:51:31.057Z,3.2
2022-12-27T03:52:41.176Z,3.2
2022-12-27T03:53:51.306Z,3.2
2022-12-27T03:54:59.876Z,3.2
2022-12-27T03:56:09.587Z,3.2
2022-12-27T03:57:19.685Z,3.2
2022-12-27T03:58:29.813Z,3.2
2022-12-27T03:59:39.948Z,3.1
2022-12-27T04:00:50.054Z,3.1
2022-12-27T04:02:00.187Z,3
2022-12-27T04:03:10.289Z,2.9
2022-12-27T04:04:19.852Z,2.9
2022-12-27T04:05:30.526Z,2.8
2022-12-27T04:06:40.632Z,2.8
2022-12-27T04:07:50.755Z,2.7
2022-12-27T04:09:00.864Z,2.7
2022-12-27T04:10:10.987Z,2.7
2022-12-27T04:11:19.575Z,2.7
2022-12-27T04:12:30.506Z,2.6
2022-12-27T04:13:40.363Z,2.5
2022-12-27T04:14:50.484Z,2.5
2022-12-27T04:16:00.035Z,2.5
2022-12-27T04:17:10.705Z,2.5
2022-12-27T04:18:20.830Z,2.4
2022-12-27T04:19:30.950Z,2.4
2022-12-27T04:20:41.067Z,2.4
2022-12-27T04:21:51.178Z,2.4
2022-12-27T04:23:01.302Z,2.5
2022-12-27T04:24:11.416Z,2.5
2022-12-27T04:25:20.983Z,2.6
2022-12-27T04:26:30.680Z,2.7
2022-12-27T04:27:40.787Z,2.7
2022-12-27T04:28:50.914Z,2.7
2022-12-27T04:30:01.022Z,2.8
2022-12-27T04:31:11.410Z,2.8
2022-12-27T04:32:21.269Z,2.9
2022-12-27T04:33:31.392Z,2.9
2022-12-27T04:34:41.508Z,3
2022-12-27T04:35:51.630Z,3
2022-12-27T04:37:01.740Z,3
2022-12-27T04:38:11.869Z,3.1
2022-12-27T04:39:21.967Z,3.1
2022-12-27T04:40:32.091Z,3.2
2022-12-27T04:41:41.229Z,3.2
2022-12-27T04:42:51.347Z,3.2
2022-12-27T04:44:01.467Z,3.2
2022-12-27T04:45:11.586Z,3.2
2022-12-27T04:46:21.139Z,3.2
2022-12-27T04:47:31.827Z,3.2
2022-12-27T04:48:41.933Z,3.2
2022-12-27T04:49:52.056Z,3.3
2022-12-27T04:51:02.178Z,3.3
2022-12-27T04:52:12.282Z,3.3
2022-12-27T04:53:22.405Z,3.3
2022-12-27T04:54:32.529Z,3.3
2022-12-27T04:55:42.637Z,3.3
2022-12-27T04:56:51.771Z,3.3
2022-12-27T04:58:00.923Z,3.3
2022-12-27T04:59:10.066Z,3.3
2022-12-27T05:00:20.439Z,3.3
2022-12-27T05:01:30.301Z,3.3
2022-12-27T05:02:40.409Z,3.3
2022-12-27T05:03:49.559Z,3.3
2022-12-27T05:04:58.693Z,3.3
2022-12-27T05:06:08.814Z,3.3
2022-12-27T05:07:18.933Z,3.3
2022-12-27T05:08:29.047Z,3.3
2022-12-27T05:09:39.168Z,3.3
2022-12-27T05:10:49.283Z,3.3
2022-12-27T05:11:59.402Z,3.3
2022-12-27T05:13:09.518Z,3.3
2022-12-27T05:14:19.080Z,3.3
2022-12-27T05:15:29.761Z,3.3
2022-12-27T05:16:40.122Z,3.3
2022-12-27T05:17:50.249Z,3.3
2022-12-27T05:19:00.116Z,3.3
2022-12-27T05:20:09.497Z,3.3
2022-12-27T05:21:19.361Z,3.2
2022-12-27T05:22:29.727Z,3.2
2022-12-27T05:23:39.595Z,3.2
2022-12-27T05:24:49.721Z,3.1
2022-12-27T05:25:59.829Z,3.1
2022-12-27T05:27:09.951Z,3
2022-12-27T05:28:20.070Z,2.9
2022-12-27T05:29:30.188Z,2.9
2022-12-27T05:30:40.301Z,3
2022-12-27T05:31:50.428Z,3
2022-12-27T05:33:00.549Z,2.9
2022-12-27T05:34:10.914Z,3
2022-12-27T05:35:19.801Z,3
2022-12-27T05:36:29.912Z,3
2022-12-27T05:37:40.037Z,3
2022-12-27T05:38:49.172Z,3
2022-12-27T05:39:57.745Z,3
2022-12-27T05:41:07.456Z,3.1
2022-12-27T05:42:16.601Z,3.1
2022-12-27T05:43:26.706Z,3.2
2022-12-27T05:44:36.825Z,3.2
2022-12-27T05:45:46.939Z,3.2
2022-12-27T05:46:57.059Z,3.3
2022-12-27T05:48:07.434Z,3.3
2022-12-27T05:49:16.738Z,3.3
2022-12-27T05:50:26.853Z,3.4
2022-12-27T05:51:37.792Z,3.4
2022-12-27T05:52:47.644Z,3.4
2022-12-27T05:53:57.778Z,3.5
2022-12-27T05:55:07.881Z,3.5
2022-12-27T05:56:18.002Z,3.5
2022-12-27T05:57:27.408Z,3.6
2022-12-27T05:58:37.258Z,3.6
2022-12-27T05:59:47.376Z,3.6
2022-12-27T06:00:57.497Z,3.6
2022-12-27T06:02:07.613Z,3.6
2022-12-27T06:03:17.726Z,3.6
2022-12-27T06:04:27.851Z,3.6
2022-12-27T06:05:38.223Z,3.7
2022-12-27T06:06:48.082Z,3.7
2022-12-27T06:07:58.200Z,3.6
2022-12-27T06:09:08.575Z,3.7
2022-12-27T06:10:18.442Z,3.7
2022-12-27T06:11:28.567Z,3.7
2022-12-27T06:12:37.686Z,3.8
2022-12-27T06:13:47.809Z,3.8
2022-12-27T06:14:57.926Z,3.8
2022-12-27T06:16:08.302Z,3.8
2022-12-27T06:17:17.597Z,3.8
2022-12-27T06:18:28.285Z,3.8
2022-12-27T06:19:38.402Z,3.8
2022-12-27T06:20:48.511Z,3.8
2022-12-27T06:21:58.633Z,3.8
2022-12-27T06:23:08.755Z,3.8
2022-12-27T06:24:18.866Z,3.8
2022-12-27T06:25:28.988Z,3.8
2022-12-27T06:26:39.110Z,3.8
2022-12-27T06:27:48.240Z,3.8
2022-12-27T06:28:57.381Z,3.8
2022-12-27T06:30:06.517Z,3.8
2022-12-27T06:31:16.643Z,3.7
2022-12-27T06:32:26.750Z,3.7
2022-12-27T06:33:36.873Z,3.7
2022-12-27T06:34:46.017Z,3.7
2022-12-27T06:35:55.150Z,3.7
2022-12-27T06:37:05.268Z,3.7
2022-12-27T06:38:15.398Z,3.7
2022-12-27T06:39:25.516Z,3.7
2022-12-27T06:40:35.624Z,3.7
2022-12-27T06:41:44.765Z,3.7
2022-12-27T06:42:54.877Z,3.7
2022-12-27T06:44:05.001Z,3.7
2022-12-27T06:45:14.554Z,3.7
2022-12-27T06:46:25.237Z,3.8
2022-12-27T06:47:35.356Z,3.8
2022-12-27T06:48:45.477Z,3.8
2022-12-27T06:49:55.601Z,3.8
2022-12-27T06:51:05.706Z,3.8
2022-12-27T06:52:15.826Z,3.8
2022-12-27T06:53:25.946Z,3.9
2022-12-27T06:54:36.314Z,3.9
2022-12-27T06:55:46.177Z,3.9
2022-12-27T06:56:55.326Z,3.9
2022-12-27T06:58:05.441Z,4
2022-12-27T06:59:15.552Z,3.9
2022-12-27T07:00:25.670Z,3.9
2022-12-27T07:01:35.799Z,3.9
2022-12-27T07:02:45.905Z,3.8
2022-12-27T07:03:56.025Z,3.7
2022-12-27T07:05:06.146Z,3.7
2022-12-27T07:06:16.265Z,3.7
2022-12-27T07:07:26.382Z,3.7
2022-12-27T07:08:36.498Z,3.6
2022-12-27T07:09:45.897Z,3.6
2022-12-27T07:10:54.782Z,3.6
2022-12-27T07:12:04.903Z,3.6
2022-12-27T07:13:14.045Z,3.6
2022-12-27T07:14:23.180Z,3.7
2022-12-27T07:15:33.288Z,3.7
2022-12-27T07:16:43.411Z,3.7
2022-12-27T07:17:53.527Z,3.7
2022-12-27T07:19:03.657Z,3.7
2022-12-27T07:20:13.763Z,3.7
2022-12-27T07:21:23.881Z,3.7
2022-12-27T07:22:34.001Z,3.8
2022-12-27T07:23:44.121Z,3.8
2022-12-27T07:24:54.234Z,3.8
2022-12-27T07:26:04.350Z,3.9
2022-12-27T07:27:14.466Z,3.9
2022-12-27T07:28:24.594Z,3.9
2022-12-27T07:29:33.724Z,3.9
2022-12-27T07:30:43.847Z,3.9
2022-12-27T07:31:53.955Z,3.9
2022-12-27T07:33:04.079Z,3.9
2022-12-27T07:34:14.203Z,3.9
2022-12-27T07:35:24.327Z,3.9
2022-12-27T07:36:34.436Z,3.9
2022-12-27T07:37:43.576Z,3.9
2022-12-27T07:38:52.716Z,3.9
2022-12-27T07:40:01.857Z,3.9
2022-12-27T07:41:10.986Z,3.9
2022-12-27T07:42:21.105Z,3.8
2022-12-27T07:43:31.235Z,3.8
2022-12-27T07:44:41.341Z,3.8
2022-12-27T07:45:51.460Z,3.8
2022-12-27T07:47:01.585Z,3.7
2022-12-27T07:48:11.697Z,3.7
2022-12-27T07:49:21.821Z,3.6
2022-12-27T07:50:31.937Z,3.6
2022-12-27T07:51:42.306Z,3.6
2022-12-27T07:52:52.168Z,3.7
2022-12-27T07:54:02.294Z,3.6
2022-12-27T07:55:11.852Z,3.6
2022-12-27T07:56:21.552Z,3.6
2022-12-27T07:57:31.659Z,3.6
2022-12-27T07:58:41.776Z,3.5
2022-12-27T07:59:51.896Z,3.5
2022-12-27T08:01:02.008Z,3.5
2022-12-27T08:02:12.131Z,3.5
2022-12-27T08:03:22.254Z,3.5
2022-12-27T08:04:32.363Z,3.5
2022-12-27T08:05:42.484Z,3.5
2022-12-27T08:06:52.616Z,3.6
2022-12-27T08:08:02.724Z,3.6
2022-12-27T08:09:12.842Z,3.6
2022-12-27T08:10:22.953Z,3.6
2022-12-27T08:11:32.089Z,3.6
2022-12-27T08:12:41.236Z,3.6
2022-12-27T08:13:49.804Z,3.6
2022-12-27T08:15:00.738Z,3.6
2022-12-27T08:16:09.635Z,3.7
2022-12-27T08:17:18.776Z,3.6
2022-12-27T08:18:28.881Z,3.6
2022-12-27T08:19:39.003Z,3.6
2022-12-27T08:20:49.134Z,3.6
2022-12-27T08:21:59.240Z,3.5
2022-12-27T08:23:09.365Z,3.5
2022-12-27T08:24:19.473Z,3.5
2022-12-27T08:25:29.593Z,3.5
2022-12-27T08:26:39.712Z,3.5
2022-12-27T08:27:49.833Z,3.5
2022-12-27T08:28:59.955Z,3.5
2022-12-27T08:30:10.074Z,3.5
2022-12-27T08:31:20.179Z,3.5
2022-12-27T08:32:29.565Z,3.5
2022-12-27T08:33:39.437Z,3.5
2022-12-27T08:34:49.554Z,3.4
2022-12-27T08:35:59.676Z,3.4
2022-12-27T08:37:09.799Z,3.5
2022-12-27T08:38:20.169Z,3.5
2022-12-27T08:39:30.023Z,3.5
2022-12-27T08:40:40.159Z,3.5
2022-12-27T08:41:50.260Z,3.4
2022-12-27T08:43:00.390Z,3.5
2022-12-27T08:44:10.502Z,3.6
2022-12-27T08:45:20.615Z,3.6
2022-12-27T08:46:30.737Z,3.6
2022-12-27T08:47:39.880Z,3.7
2022-12-27T08:48:49.990Z,3.7
2022-12-27T08:50:00.112Z,3.7
2022-12-27T08:51:10.630Z,3.8
2022-12-27T08:52:19.511Z,3.8
2022-12-27T08:53:29.625Z,3.8
2022-12-27T08:54:38.765Z,3.8
2022-12-27T08:55:47.900Z,3.8
2022-12-27T08:56:58.020Z,3.8
2022-12-27T08:58:08.135Z,3.8
2022-12-27T08:59:18.263Z,3.8
2022-12-27T09:00:28.371Z,3.8
2022-12-27T09:01:38.755Z,3.8
2022-12-27T09:02:48.616Z,3.8
2022-12-27T09:03:58.735Z,3.9
2022-12-27T09:05:08.861Z,3.9
2022-12-27T09:06:18.963Z,3.9
2022-12-27T09:07:29.084Z,3.9
2022-12-27T09:08:39.199Z,3.9
2022-12-27T09:09:49.315Z,3.9
2022-12-27T09:10:58.464Z,3.9
2022-12-27T09:12:08.569Z,3.9
2022-12-27T09:13:18.693Z,3.9
2022-12-27T09:14:28.813Z,3.9
2022-12-27T09:15:38.940Z,3.8
2022-12-27T09:17:59.424Z,3.9
2022-12-27T09:19:09.287Z,3.9
2022-12-27T09:20:18.425Z,4
2022-12-27T09:21:27.814Z,4
2022-12-27T09:22:37.674Z,4
2022-12-27T09:23:46.837Z,4
2022-12-27T09:24:55.954Z,4
2022-12-27T09:26:06.071Z,4
2022-12-27T09:27:16.207Z,4
2022-12-27T09:28:26.309Z,4
2022-12-27T09:29:36.426Z,4
2022-12-27T09:30:46.545Z,4
2022-12-27T09:31:56.664Z,3.9
2022-12-27T09:33:06.780Z,3.9
2022-12-27T09:34:16.905Z,3.9
2022-12-27T09:35:27.290Z,3.9
2022-12-27T09:36:37.391Z,3.9
2022-12-27T09:37:47.265Z,4
2022-12-27T09:38:57.387Z,4
2022-12-27T09:40:06.768Z,4
2022-12-27T09:41:16.879Z,4
2022-12-27T09:42:26.747Z,4.1
2022-12-27T09:43:36.873Z,4.1
2022-12-27T09:44:46.983Z,4.2
2022-12-27T09:45:57.105Z,4.3
2022-12-27T09:47:07.214Z,4.4
2022-12-27T09:48:17.339Z,4.4
2022-12-27T09:49:27.449Z,4.4
2022-12-27T09:50:37.822Z,4.4
2022-12-27T09:51:47.703Z,4.4
2022-12-27T09:52:57.813Z,4.5
2022-12-27T09:54:07.923Z,4.4
2022-12-27T09:55:17.060Z,4.4
2022-12-27T09:56:27.179Z,4.5
2022-12-27T09:57:36.317Z,4.4
2022-12-27T09:58:45.452Z,4.4
2022-12-27T09:59:55.586Z,4.4
2022-12-27T10:01:05.703Z,4.3
2022-12-27T10:02:15.810Z,4.4
2022-12-27T10:03:25.933Z,4.4
2022-12-27T10:04:35.076Z,4.5
2022-12-27T10:05:44.202Z,4.5
2022-12-27T10:06:54.322Z,4.5
2022-12-27T10:08:04.443Z,4.6
2022-12-27T10:09:14.562Z,4.6
2022-12-27T10:10:24.681Z,4.6
2022-12-27T10:11:34.811Z,4.5
2022-12-27T10:12:44.926Z,4.5
2022-12-27T10:13:55.048Z,4.5
2022-12-27T10:15:05.154Z,4.5
2022-12-27T10:16:15.531Z,4.5
2022-12-27T10:17:25.395Z,4.5
2022-12-27T10:18:35.503Z,4.5
2022-12-27T10:19:45.631Z,4.5
2022-12-27T10:20:54.762Z,4.5
2022-12-27T10:22:04.873Z,4.5
2022-12-27T10:23:14.992Z,4.5
2022-12-27T10:24:25.108Z,4.6
2022-12-27T10:25:35.230Z,4.6
2022-12-27T10:26:45.343Z,4.6
2022-12-27T10:27:55.463Z,4.5
2022-12-27T10:29:05.589Z,4.5
2022-12-27T10:30:15.953Z,4.6
2022-12-27T10:31:25.819Z,4.6
2022-12-27T10:32:35.951Z,4.6
2022-12-27T10:33:46.068Z,4.6
2022-12-27T10:34:56.174Z,4.6
2022-12-27T10:36:05.315Z,4.7
2022-12-27T10:37:15.440Z,4.7
2022-12-27T10:38:25.554Z,4.8
2022-12-27T10:39:35.663Z,4.8
2022-12-27T10:40:45.795Z,4.7
2022-12-27T10:41:54.928Z,4.7
2022-12-27T10:43:04.062Z,4.8
2022-12-27T10:44:14.180Z,4.8
2022-12-27T10:45:23.325Z,4.8
2022-12-27T10:46:32.460Z,4.8
2022-12-27T10:47:42.583Z,4.7
2022-12-27T10:48:52.694Z,4.8
2022-12-27T10:50:02.811Z,4.7
2022-12-27T10:51:12.934Z,4.8
2022-12-27T10:52:23.049Z,4.8
2022-12-27T10:53:33.173Z,4.9
2022-12-27T10:54:43.299Z,4.9
2022-12-27T10:55:53.401Z,4.9
2022-12-27T10:57:03.519Z,4.8
2022-12-27T10:58:13.643Z,4.9
2022-12-27T10:59:23.764Z,4.9
2022-12-27T11:00:33.875Z,4.9
2022-12-27T11:01:43.017Z,4.9
2022-12-27T11:02:53.126Z,4.9
2022-12-27T11:04:03.245Z,5
2022-12-27T11:05:13.363Z,5
2022-12-27T11:06:23.481Z,4.9
2022-12-27T11:07:33.608Z,5
2022-12-27T11:08:43.720Z,4.9
2022-12-27T11:09:53.837Z,4.9
2022-12-27T11:11:03.961Z,4.9
2022-12-27T11:12:14.089Z,5
2022-12-27T11:13:24.196Z,5
2022-12-27T11:14:34.312Z,5
2022-12-27T11:15:44.428Z,4.9
2022-12-27T11:16:53.565Z,4.9
2022-12-27T11:18:03.690Z,5
2022-12-27T11:19:13.794Z,4.9
2022-12-27T11:20:23.914Z,4.8
2022-12-27T11:21:34.041Z,4.9
2022-12-27T11:22:44.152Z,4.8
2022-12-27T11:23:54.271Z,4.8
2022-12-27T11:25:04.398Z,4.9
2022-12-27T11:26:14.503Z,4.8
2022-12-27T11:27:24.636Z,4.8
2022-12-27T11:28:34.738Z,4.8
2022-12-27T11:29:44.869Z,4.7
2022-12-27T11:30:54.992Z,4.7
2022-12-27T11:32:04.120Z,4.7
2022-12-27T11:33:14.226Z,4.7
2022-12-27T11:34:24.346Z,4.7
2022-12-27T11:35:34.482Z,4.8
2022-12-27T11:36:44.585Z,4.8
2022-12-27T11:37:54.717Z,4.8
2022-12-27T11:39:04.820Z,4.9
2022-12-27T11:40:14.355Z,4.9
2022-12-27T11:41:25.061Z,4.8
2022-12-27T11:42:35.186Z,4.8
2022-12-27T11:43:45.301Z,4.8
2022-12-27T11:44:55.412Z,4.8
2022-12-27T11:46:05.535Z,4.8
2022-12-27T11:47:14.668Z,4.8
2022-12-27T11:48:24.790Z,4.8
2022-12-27T11:49:34.901Z,4.8
2022-12-27T11:51:55.411Z,4.9
2022-12-27T11:53:05.255Z,4.9
2022-12-27T11:54:15.627Z,4.9
2022-12-27T11:55:25.741Z,4.9
2022-12-27T11:56:35.609Z,4.9
2022-12-27T11:57:45.724Z,4.9
2022-12-27T11:58:55.847Z,4.9
2022-12-27T12:00:05.958Z,4.9
2022-12-27T12:01:16.093Z,4.9
2022-12-27T12:02:25.465Z,4.9
2022-12-27T12:03:35.327Z,4.9
2022-12-27T12:04:45.453Z,4.9
2022-12-27T12:05:55.577Z,4.9
2022-12-27T12:07:05.683Z,4.9
2022-12-27T12:08:15.221Z,5
2022-12-27T12:09:25.926Z,5
2022-12-27T12:10:36.037Z,5
2022-12-27T12:11:46.165Z,5.1
2022-12-27T12:12:56.270Z,5
2022-12-27T12:14:06.388Z,5
2022-12-27T12:15:16.758Z,5
2022-12-27T12:16:26.635Z,5
2022-12-27T12:17:35.785Z,5
2022-12-27T12:18:44.918Z,5.1
2022-12-27T12:19:54.051Z,5.1
2022-12-27T12:21:03.183Z,5.2
2022-12-27T12:22:13.311Z,5.2
2022-12-27T12:23:23.418Z,5.1
2022-12-27T12:24:33.543Z,5.1
2022-12-27T12:25:43.665Z,5.1
2022-12-27T12:26:53.774Z,5
2022-12-27T12:28:03.900Z,5.1
2022-12-27T12:29:14.015Z,5.1
2022-12-27T12:30:24.389Z,5.1
2022-12-27T12:31:34.251Z,5.2
2022-12-27T12:32:44.368Z,5.2
2022-12-27T12:33:54.497Z,5.2
2022-12-27T12:35:04.599Z,5.2
2022-12-27T12:36:13.740Z,5.1
2022-12-27T12:37:24.106Z,5.1
2022-12-27T12:38:33.971Z,5.1
2022-12-27T12:39:44.089Z,5.1
2022-12-27T12:40:54.459Z,5.1
2022-12-27T12:42:03.741Z,5.2
2022-12-27T12:43:14.699Z,5.1
2022-12-27T12:44:23.588Z,5.1
2022-12-27T12:45:32.720Z,5.1
2022-12-27T12:46:42.841Z,5.2
2022-12-27T12:47:51.989Z,5.2
2022-12-27T12:49:01.121Z,5.2
2022-12-27T12:50:11.244Z,5.3
2022-12-27T12:51:21.368Z,5.3
2022-12-27T12:52:31.475Z,5.3
2022-12-27T12:53:41.600Z,5.3
2022-12-27T12:54:51.720Z,5.3
2022-12-27T12:56:01.823Z,5.3
2022-12-27T12:57:11.948Z,5.2
2022-12-27T12:58:22.066Z,5.2
2022-12-27T12:59:32.188Z,5.2
2022-12-27T13:00:42.298Z,5.2
2022-12-27T13:01:52.415Z,5.2
2022-12-27T13:03:02.536Z,5.2
2022-12-27T13:04:11.675Z,5.2
2022-12-27T13:05:21.786Z,5.2
2022-12-27T13:06:31.909Z,5.2
2022-12-27T13:07:42.024Z,5.2
2022-12-27T13:08:52.152Z,5.1
2022-12-27T13:10:02.266Z,5.1
2022-12-27T13:11:12.388Z,5.1
2022-12-27T13:12:21.524Z,5
2022-12-27T13:13:30.658Z,5
2022-12-27T13:14:39.797Z,5
2022-12-27T13:15:48.931Z,4.9
2022-12-27T13:16:59.054Z,4.9
2022-12-27T13:18:09.185Z,4.9
2022-12-27T13:19:19.302Z,4.9
2022-12-27T13:20:29.405Z,4.8
2022-12-27T13:21:39.523Z,4.7
2022-12-27T13:22:49.637Z,4.7
2022-12-27T13:23:59.763Z,4.8
2022-12-27T13:25:09.873Z,4.7
2022-12-27T13:26:19.993Z,4.7
2022-12-27T13:27:30.112Z,4.7
2022-12-27T13:28:40.246Z,4.8
2022-12-27T13:29:50.355Z,4.8
2022-12-27T13:30:59.483Z,4.8
2022-12-27T13:32:09.601Z,4.8
2022-12-27T13:33:19.714Z,4.7
2022-12-27T13:34:29.834Z,4.7
2022-12-27T13:35:39.382Z,4.6
2022-12-27T13:36:50.076Z,4.6
2022-12-27T13:38:00.191Z,4.6
2022-12-27T13:39:10.318Z,4.5
2022-12-27T13:40:19.455Z,4.5
2022-12-27T13:41:28.592Z,4.5
2022-12-27T13:42:37.741Z,4.4
2022-12-27T13:43:46.864Z,4.4
2022-12-27T13:44:56.981Z,4.4
2022-12-27T13:46:07.110Z,4.3
2022-12-27T13:47:17.217Z,4.4
2022-12-27T13:48:27.338Z,4.4
2022-12-27T13:49:37.465Z,4.4
2022-12-27T13:50:47.588Z,4.3
2022-12-27T13:51:57.694Z,4.3
2022-12-27T13:53:07.815Z,4.3
2022-12-27T13:54:17.935Z,4.3
2022-12-27T13:55:28.063Z,4.3
2022-12-27T13:56:38.177Z,4.2
2022-12-27T13:57:48.287Z,4.2
2022-12-27T13:58:57.415Z,4.2
2022-12-27T14:00:07.543Z,4.1
2022-12-27T14:01:17.654Z,4.1
2022-12-27T14:02:27.771Z,4.1
2022-12-27T14:03:37.886Z,4.1
2022-12-27T14:04:48.014Z,4.1
2022-12-27T14:05:57.538Z,4.1
2022-12-27T14:07:06.690Z,4.1
2022-12-27T14:08:16.405Z,4.1
2022-12-27T14:09:26.667Z,4.1
2022-12-27T14:10:35.803Z,4.1
2022-12-27T14:11:45.926Z,4.1
2022-12-27T14:12:55.457Z,4.1
2022-12-27T14:14:06.153Z,4
2022-12-27T14:15:16.283Z,4.1
2022-12-27T14:16:26.401Z,4.1
2022-12-27T14:17:36.511Z,4.2
2022-12-27T14:18:46.641Z,4.2
2022-12-27T14:19:56.748Z,4.1
2022-12-27T14:21:06.871Z,4.1
2022-12-27T14:22:16.981Z,4.2
2022-12-27T14:23:27.357Z,4.2
2022-12-27T14:24:37.215Z,4.2
2022-12-27T14:25:46.350Z,4.3
2022-12-27T14:26:55.885Z,4.3
2022-12-27T14:28:06.590Z,4.3
2022-12-27T14:29:16.717Z,4.3
2022-12-27T14:30:25.849Z,4.3
2022-12-27T14:31:35.000Z,4.3
2022-12-27T14:32:46.081Z,4.2
2022-12-27T14:33:55.239Z,4.3
2022-12-27T14:35:04.360Z,4.3
2022-12-27T14:36:13.763Z,4.3
2022-12-27T14:37:22.636Z,4.3
2022-12-27T14:38:32.757Z,4.3
2022-12-27T14:39:42.880Z,4.4
2022-12-27T14:40:52.999Z,4.3
2022-12-27T14:42:03.112Z,4.4
2022-12-27T14:43:13.227Z,4.4
2022-12-27T14:44:23.350Z,4.4
2022-12-27T14:45:33.468Z,4.4
2022-12-27T14:46:43.600Z,4.4
2022-12-27T14:47:53.701Z,4.4
2022-12-27T14:49:03.830Z,4.4
2022-12-27T14:50:13.939Z,4.4
2022-12-27T14:51:24.307Z,4.4
2022-12-27T14:52:34.296Z,4.3
2022-12-27T14:53:44.414Z,4.3
2022-12-27T14:54:53.948Z,4.3
2022-12-27T14:56:04.662Z,4.2
2022-12-27T14:57:15.026Z,4.2
2022-12-27T14:58:24.884Z,4.1
2022-12-27T14:59:35.011Z,4.1
2022-12-27T15:00:44.160Z,4.1
2022-12-27T15:01:52.695Z,4
2022-12-27T15:03:03.658Z,4
2022-12-27T15:04:12.555Z,4
2022-12-27T15:05:21.932Z,4
2022-12-27T15:06:31.798Z,4
2022-12-27T15:07:41.920Z,4
2022-12-27T15:08:52.034Z,4
2022-12-27T15:10:02.171Z,3.9
2022-12-27T15:11:12.272Z,4
2022-12-27T15:12:22.397Z,4
2022-12-27T15:13:32.520Z,4.1
2022-12-27T15:14:42.879Z,4.1
2022-12-27T15:15:52.155Z,4.1
2022-12-27T15:17:02.861Z,4
2022-12-27T15:18:12.989Z,4
2022-12-27T15:19:23.103Z,3.9
2022-12-27T15:20:32.240Z,3.8
2022-12-27T15:21:42.598Z,4
2022-12-27T15:22:51.883Z,4
2022-12-27T15:24:02.597Z,4
2022-12-27T15:25:12.709Z,4
2022-12-27T15:26:23.083Z,4
2022-12-27T15:27:32.953Z,4
2022-12-27T15:28:42.336Z,4.1
2022-12-27T15:29:51.217Z,4
2022-12-27T15:31:01.343Z,4
2022-12-27T15:32:10.481Z,4
2022-12-27T15:33:19.617Z,4
2022-12-27T15:34:29.740Z,4
2022-12-27T15:35:39.849Z,4
2022-12-27T15:36:49.974Z,4
2022-12-27T15:38:00.095Z,4
2022-12-27T15:39:09.626Z,4
2022-12-27T15:40:20.326Z,4
2022-12-27T15:41:30.461Z,4
2022-12-27T15:42:40.564Z,4
2022-12-27T15:43:50.095Z,4
2022-12-27T15:45:01.049Z,4
2022-12-27T15:46:10.918Z,4
2022-12-27T15:47:21.293Z,4
2022-12-27T15:49:41.532Z,4
2022-12-27T15:50:50.805Z,4
2022-12-27T15:52:00.528Z,4.1
2022-12-27T15:53:10.637Z,4.1
2022-12-27T15:54:21.010Z,4.1
2022-12-27T15:55:30.296Z,4
2022-12-27T15:56:40.983Z,4.1
2022-12-27T15:57:50.522Z,4
2022-12-27T15:59:01.235Z,4
2022-12-27T16:00:11.341Z,4
2022-12-27T16:01:21.463Z,4
2022-12-27T16:02:30.994Z,4
2022-12-27T16:03:41.702Z,4
2022-12-27T16:04:51.822Z,3.9
2022-12-27T16:06:01.930Z,3.9
2022-12-27T16:07:10.484Z,3.9
2022-12-27T16:08:21.193Z,3.9
2022-12-27T16:09:31.299Z,3.9
2022-12-27T16:10:41.419Z,3.9
2022-12-27T16:11:50.950Z,3.9
2022-12-27T16:13:01.918Z,3.9
2022-12-27T16:14:11.771Z,3.9
2022-12-27T16:15:21.890Z,3.9
2022-12-27T16:16:31.421Z,3.8
2022-12-27T16:17:42.127Z,3.8